METAR Data
IDs: Format: Raw Decoded Include TAF

Data at: 0203 UTC 01 Mar 2021

KJXN 010156Z 27014G31KT 10SM BKN022 06/01 A2972 RMK AO2 PK WND 25031/0105 SLP072 T00560006